sensor_id;sensor_type;location;lat;lon;timestamp;temperature;humidity
70534;SHT31;58088;51.186;17.130;2023-08-08T00:01:52;15.93;66.90
70534;SHT31;58088;51.186;17.130;2023-08-08T00:04:19;15.94;66.96
70534;SHT31;58088;51.186;17.130;2023-08-08T00:06:45;15.96;66.94
70534;SHT31;58088;51.186;17.130;2023-08-08T00:09:11;16.03;66.88
70534;SHT31;58088;51.186;17.130;2023-08-08T00:11:37;16.06;66.78
70534;SHT31;58088;51.186;17.130;2023-08-08T00:14:03;16.07;66.75
70534;SHT31;58088;51.186;17.130;2023-08-08T00:16:30;16.08;66.68
70534;SHT31;58088;51.186;17.130;2023-08-08T00:18:56;16.09;66.72
70534;SHT31;58088;51.186;17.130;2023-08-08T00:21:22;16.10;66.80
70534;SHT31;58088;51.186;17.130;2023-08-08T00:23:48;16.11;66.79
70534;SHT31;58088;51.186;17.130;2023-08-08T00:26:14;16.12;66.71
70534;SHT31;58088;51.186;17.130;2023-08-08T00:28:41;16.15;66.70
70534;SHT31;58088;51.186;17.130;2023-08-08T00:31:07;16.17;66.62
70534;SHT31;58088;51.186;17.130;2023-08-08T00:33:33;16.18;66.56
70534;SHT31;58088;51.186;17.130;2023-08-08T00:35:59;16.21;66.50
70534;SHT31;58088;51.186;17.130;2023-08-08T00:38:26;16.24;66.40
70534;SHT31;58088;51.186;17.130;2023-08-08T00:40:52;16.25;66.39
70534;SHT31;58088;51.186;17.130;2023-08-08T00:43:18;16.26;66.24
70534;SHT31;58088;51.186;17.130;2023-08-08T00:45:44;16.27;66.18
70534;SHT31;58088;51.186;17.130;2023-08-08T00:48:11;16.27;66.09
70534;SHT31;58088;51.186;17.130;2023-08-08T00:50:41;16.27;65.97
70534;SHT31;58088;51.186;17.130;2023-08-08T00:53:11;16.25;65.89
70534;SHT31;58088;51.186;17.130;2023-08-08T00:55:38;16.25;65.75
70534;SHT31;58088;51.186;17.130;2023-08-08T00:58:05;16.25;65.66
70534;SHT31;58088;51.186;17.130;2023-08-08T01:00:33;16.26;65.62
70534;SHT31;58088;51.186;17.130;2023-08-08T01:03:03;16.24;65.42
70534;SHT31;58088;51.186;17.130;2023-08-08T01:05:33;16.23;65.32
70534;SHT31;58088;51.186;17.130;2023-08-08T01:08:09;16.21;65.14
70534;SHT31;58088;51.186;17.130;2023-08-08T01:10:45;16.22;65.20
70534;SHT31;58088;51.186;17.130;2023-08-08T01:13:16;16.21;65.20
70534;SHT31;58088;51.186;17.130;2023-08-08T01:15:46;16.18;65.17
70534;SHT31;58088;51.186;17.130;2023-08-08T01:18:15;16.15;65.10
70534;SHT31;58088;51.186;17.130;2023-08-08T01:20:43;16.13;65.12
70534;SHT31;58088;51.186;17.130;2023-08-08T01:23:19;16.11;65.05
70534;SHT31;58088;51.186;17.130;2023-08-08T01:26:00;16.07;65.03
70534;SHT31;58088;51.186;17.130;2023-08-08T01:28:28;16.03;65.11
70534;SHT31;58088;51.186;17.130;2023-08-08T01:30:54;16.00;65.21
70534;SHT31;58088;51.186;17.130;2023-08-08T01:33:21;15.98;65.29
70534;SHT31;58088;51.186;17.130;2023-08-08T01:35:53;15.93;65.30
70534;SHT31;58088;51.186;17.130;2023-08-08T01:38:35;15.87;65.40
70534;SHT31;58088;51.186;17.130;2023-08-08T01:41:06;15.82;65.55
70534;SHT31;58088;51.186;17.130;2023-08-08T01:43:34;15.76;65.61
70534;SHT31;58088;51.186;17.130;2023-08-08T01:46:05;15.72;65.71
70534;SHT31;58088;51.186;17.130;2023-08-08T01:48:33;15.68;65.84
70534;SHT31;58088;51.186;17.130;2023-08-08T01:50:59;15.64;65.91
70534;SHT31;58088;51.186;17.130;2023-08-08T01:53:26;15.60;65.94
70534;SHT31;58088;51.186;17.130;2023-08-08T01:55:52;15.56;66.00
70534;SHT31;58088;51.186;17.130;2023-08-08T01:58:18;15.51;66.15
70534;SHT31;58088;51.186;17.130;2023-08-08T02:00:45;15.47;66.27
70534;SHT31;58088;51.186;17.130;2023-08-08T02:03:31;15.43;66.30
70534;SHT31;58088;51.186;17.130;2023-08-08T02:05:57;15.38;66.31
70534;SHT31;58088;51.186;17.130;2023-08-08T02:08:24;15.33;66.38
70534;SHT31;58088;51.186;17.130;2023-08-08T02:10:50;15.29;66.48
70534;SHT31;58088;51.186;17.130;2023-08-08T02:13:16;15.25;66.58
70534;SHT31;58088;51.186;17.130;2023-08-08T02:15:42;15.21;66.63
70534;SHT31;58088;51.186;17.130;2023-08-08T02:18:09;15.18;66.67
70534;SHT31;58088;51.186;17.130;2023-08-08T02:20:36;15.15;66.76
70534;SHT31;58088;51.186;17.130;2023-08-08T02:23:04;15.12;66.82
70534;SHT31;58088;51.186;17.130;2023-08-08T02:25:31;15.07;66.87
70534;SHT31;58088;51.186;17.130;2023-08-08T02:27:57;15.04;66.95
70534;SHT31;58088;51.186;17.130;2023-08-08T02:30:23;15.00;67.04
70534;SHT31;58088;51.186;17.130;2023-08-08T02:32:49;14.98;67.07
70534;SHT31;58088;51.186;17.130;2023-08-08T02:35:17;14.94;67.13
70534;SHT31;58088;51.186;17.130;2023-08-08T02:37:44;14.92;67.16
70534;SHT31;58088;51.186;17.130;2023-08-08T02:40:10;14.90;67.17
70534;SHT31;58088;51.186;17.130;2023-08-08T02:42:36;14.87;67.23
70534;SHT31;58088;51.186;17.130;2023-08-08T02:45:02;14.85;67.28
70534;SHT31;58088;51.186;17.130;2023-08-08T02:47:29;14.79;67.32
70534;SHT31;58088;51.186;17.130;2023-08-08T02:49:56;14.76;67.40
70534;SHT31;58088;51.186;17.130;2023-08-08T02:52:22;14.76;67.46
70534;SHT31;58088;51.186;17.130;2023-08-08T02:54:48;14.74;67.44
70534;SHT31;58088;51.186;17.130;2023-08-08T02:57:14;14.70;67.45
70534;SHT31;58088;51.186;17.130;2023-08-08T02:59:42;14.68;67.60
70534;SHT31;58088;51.186;17.130;2023-08-08T03:02:08;14.64;67.61
70534;SHT31;58088;51.186;17.130;2023-08-08T03:04:35;14.63;67.66
70534;SHT31;58088;51.186;17.130;2023-08-08T03:07:02;14.58;67.70
70534;SHT31;58088;51.186;17.130;2023-08-08T03:09:30;14.56;67.73
70534;SHT31;58088;51.186;17.130;2023-08-08T03:11:56;14.56;67.73
70534;SHT31;58088;51.186;17.130;2023-08-08T03:14:23;14.53;67.80
70534;SHT31;58088;51.186;17.130;2023-08-08T03:16:50;14.48;67.82
70534;SHT31;58088;51.186;17.130;2023-08-08T03:19:16;14.46;67.88
70534;SHT31;58088;51.186;17.130;2023-08-08T03:21:42;14.44;67.97
70534;SHT31;58088;51.186;17.130;2023-08-08T03:24:09;14.41;68.01
70534;SHT31;58088;51.186;17.130;2023-08-08T03:26:35;14.40;68.03
70534;SHT31;58088;51.186;17.130;2023-08-08T03:29:02;14.38;68.09
70534;SHT31;58088;51.186;17.130;2023-08-08T03:31:32;14.37;68.08
70534;SHT31;58088;51.186;17.130;2023-08-08T03:33:59;14.35;68.10
70534;SHT31;58088;51.186;17.130;2023-08-08T03:36:26;14.34;68.18
70534;SHT31;58088;51.186;17.130;2023-08-08T03:38:52;14.31;68.22
70534;SHT31;58088;51.186;17.130;2023-08-08T03:41:19;14.31;68.20
70534;SHT31;58088;51.186;17.130;2023-08-08T03:43:45;14.30;68.24
70534;SHT31;58088;51.186;17.130;2023-08-08T03:46:11;14.31;68.21
70534;SHT31;58088;51.186;17.130;2023-08-08T03:48:38;14.34;68.13
70534;SHT31;58088;51.186;17.130;2023-08-08T03:51:05;14.46;68.06
70534;SHT31;58088;51.186;17.130;2023-08-08T03:53:32;14.64;67.76
70534;SHT31;58088;51.186;17.130;2023-08-08T03:55:59;14.95;67.37
70534;SHT31;58088;51.186;17.130;2023-08-08T03:58:25;15.16;66.94
70534;SHT31;58088;51.186;17.130;2023-08-08T04:00:52;15.38;66.57
70534;SHT31;58088;51.186;17.130;2023-08-08T04:03:19;15.62;66.16
70534;SHT31;58088;51.186;17.130;2023-08-08T04:05:48;15.80;65.79
70534;SHT31;58088;51.186;17.130;2023-08-08T04:08:15;16.03;65.25
70534;SHT31;58088;51.186;17.130;2023-08-08T04:10:42;16.39;64.64
70534;SHT31;58088;51.186;17.130;2023-08-08T04:13:12;16.81;63.86
70534;SHT31;58088;51.186;17.130;2023-08-08T04:15:42;17.27;62.99
70534;SHT31;58088;51.186;17.130;2023-08-08T04:18:08;17.47;62.30
70534;SHT31;58088;51.186;17.130;2023-08-08T04:20:34;17.56;62.04
70534;SHT31;58088;51.186;17.130;2023-08-08T04:23:00;17.94;61.33
70534;SHT31;58088;51.186;17.130;2023-08-08T04:25:27;18.41;60.40
70534;SHT31;58088;51.186;17.130;2023-08-08T04:27:54;18.94;59.44
70534;SHT31;58088;51.186;17.130;2023-08-08T04:30:20;19.43;58.56
70534;SHT31;58088;51.186;17.130;2023-08-08T04:32:46;19.80;57.26
70534;SHT31;58088;51.186;17.130;2023-08-08T04:35:12;20.12;56.43
70534;SHT31;58088;51.186;17.130;2023-08-08T04:37:39;20.46;55.38
70534;SHT31;58088;51.186;17.130;2023-08-08T04:40:06;20.78;54.72
70534;SHT31;58088;51.186;17.130;2023-08-08T04:42:34;21.03;53.97
70534;SHT31;58088;51.186;17.130;2023-08-08T04:45:00;21.22;53.11
70534;SHT31;58088;51.186;17.130;2023-08-08T04:47:26;21.28;52.48
70534;SHT31;58088;51.186;17.130;2023-08-08T04:49:52;21.50;52.17
70534;SHT31;58088;51.186;17.130;2023-08-08T04:52:18;21.83;51.50
70534;SHT31;58088;51.186;17.130;2023-08-08T04:54:45;22.11;50.92
70534;SHT31;58088;51.186;17.130;2023-08-08T04:57:11;22.19;50.16
70534;SHT31;58088;51.186;17.130;2023-08-08T04:59:37;22.08;50.01
70534;SHT31;58088;51.186;17.130;2023-08-08T05:02:03;22.12;49.93
70534;SHT31;58088;51.186;17.130;2023-08-08T05:04:30;22.38;49.56
70534;SHT31;58088;51.186;17.130;2023-08-08T05:06:58;22.20;49.74
70534;SHT31;58088;51.186;17.130;2023-08-08T05:09:24;21.90;50.00
70534;SHT31;58088;51.186;17.130;2023-08-08T05:11:52;21.63;50.09
70534;SHT31;58088;51.186;17.130;2023-08-08T05:14:19;21.96;49.92
70534;SHT31;58088;51.186;17.130;2023-08-08T05:16:45;22.42;49.09
70534;SHT31;58088;51.186;17.130;2023-08-08T05:19:12;22.37;48.83
70534;SHT31;58088;51.186;17.130;2023-08-08T05:21:38;22.07;49.12
70534;SHT31;58088;51.186;17.130;2023-08-08T05:24:04;21.64;49.46
70534;SHT31;58088;51.186;17.130;2023-08-08T05:26:30;21.22;50.01
70534;SHT31;58088;51.186;17.130;2023-08-08T05:29:00;20.78;50.61
70534;SHT31;58088;51.186;17.130;2023-08-08T05:31:26;20.35;51.28
70534;SHT31;58088;51.186;17.130;2023-08-08T05:33:52;20.07;51.95
70534;SHT31;58088;51.186;17.130;2023-08-08T05:36:18;19.78;52.34
70534;SHT31;58088;51.186;17.130;2023-08-08T05:38:44;19.57;52.97
70534;SHT31;58088;51.186;17.130;2023-08-08T05:41:10;19.39;53.37
70534;SHT31;58088;51.186;17.130;2023-08-08T05:43:37;19.30;53.85
70534;SHT31;58088;51.186;17.130;2023-08-08T05:46:03;19.31;53.60
70534;SHT31;58088;51.186;17.130;2023-08-08T05:48:29;19.53;53.52
70534;SHT31;58088;51.186;17.130;2023-08-08T05:50:55;20.15;52.74
70534;SHT31;58088;51.186;17.130;2023-08-08T05:53:24;20.79;52.11
70534;SHT31;58088;51.186;17.130;2023-08-08T05:55:50;20.99;51.18
70534;SHT31;58088;51.186;17.130;2023-08-08T05:58:16;21.07;50.51
70534;SHT31;58088;51.186;17.130;2023-08-08T06:00:42;21.11;50.66
70534;SHT31;58088;51.186;17.130;2023-08-08T06:03:08;21.51;50.24
70534;SHT31;58088;51.186;17.130;2023-08-08T06:05:34;21.99;49.60
70534;SHT31;58088;51.186;17.130;2023-08-08T06:08:01;22.20;48.57
70534;SHT31;58088;51.186;17.130;2023-08-08T06:10:27;22.35;47.86
70534;SHT31;58088;51.186;17.130;2023-08-08T06:12:53;22.47;47.37
70534;SHT31;58088;51.186;17.130;2023-08-08T06:15:19;22.38;46.93
70534;SHT31;58088;51.186;17.130;2023-08-08T06:17:45;22.65;47.01
70534;SHT31;58088;51.186;17.130;2023-08-08T06:20:11;22.86;45.72
70534;SHT31;58088;51.186;17.130;2023-08-08T06:22:38;22.74;46.01
70534;SHT31;58088;51.186;17.130;2023-08-08T06:25:04;22.70;45.10
70534;SHT31;58088;51.186;17.130;2023-08-08T06:27:31;22.74;45.30
70534;SHT31;58088;51.186;17.130;2023-08-08T06:29:57;22.96;45.26
70534;SHT31;58088;51.186;17.130;2023-08-08T06:32:24;23.38;45.23
70534;SHT31;58088;51.186;17.130;2023-08-08T06:34:50;23.64;43.98
70534;SHT31;58088;51.186;17.130;2023-08-08T06:37:17;23.60;43.06
70534;SHT31;58088;51.186;17.130;2023-08-08T06:39:43;23.70;43.57
70534;SHT31;58088;51.186;17.130;2023-08-08T06:42:09;23.84;43.49
70534;SHT31;58088;51.186;17.130;2023-08-08T06:44:42;23.94;43.35
70534;SHT31;58088;51.186;17.130;2023-08-08T06:47:10;23.84;43.49
70534;SHT31;58088;51.186;17.130;2023-08-08T06:49:37;23.53;43.91
70534;SHT31;58088;51.186;17.130;2023-08-08T06:52:04;23.50;44.40
70534;SHT31;58088;51.186;17.130;2023-08-08T06:54:31;23.52;44.56
70534;SHT31;58088;51.186;17.130;2023-08-08T06:56:58;23.47;43.56
70534;SHT31;58088;51.186;17.130;2023-08-08T06:59:25;23.58;43.20
70534;SHT31;58088;51.186;17.130;2023-08-08T07:01:52;23.81;42.29
70534;SHT31;58088;51.186;17.130;2023-08-08T07:04:19;23.87;40.89
70534;SHT31;58088;51.186;17.130;2023-08-08T07:06:47;23.86;40.90
70534;SHT31;58088;51.186;17.130;2023-08-08T07:09:13;24.02;40.90
70534;SHT31;58088;51.186;17.130;2023-08-08T07:11:40;24.09;40.77
70534;SHT31;58088;51.186;17.130;2023-08-08T07:14:06;24.05;40.68
70534;SHT31;58088;51.186;17.130;2023-08-08T07:16:33;24.12;40.71
70534;SHT31;58088;51.186;17.130;2023-08-08T07:18:59;24.23;40.28
70534;SHT31;58088;51.186;17.130;2023-08-08T07:21:25;24.06;39.79
70534;SHT31;58088;51.186;17.130;2023-08-08T07:23:52;23.80;40.60
70534;SHT31;58088;51.186;17.130;2023-08-08T07:26:18;23.68;39.96
70534;SHT31;58088;51.186;17.130;2023-08-08T07:28:44;23.60;39.83
70534;SHT31;58088;51.186;17.130;2023-08-08T07:31:11;23.45;39.89
70534;SHT31;58088;51.186;17.130;2023-08-08T07:33:37;23.30;39.88
70534;SHT31;58088;51.186;17.130;2023-08-08T07:36:03;23.02;39.71
70534;SHT31;58088;51.186;17.130;2023-08-08T07:38:30;22.72;39.97
70534;SHT31;58088;51.186;17.130;2023-08-08T07:40:58;22.47;39.93
70534;SHT31;58088;51.186;17.130;2023-08-08T07:43:24;22.26;40.53
70534;SHT31;58088;51.186;17.130;2023-08-08T07:45:50;22.25;41.07
70534;SHT31;58088;51.186;17.130;2023-08-08T07:48:17;22.26;40.88
70534;SHT31;58088;51.186;17.130;2023-08-08T07:50:43;22.35;40.90
70534;SHT31;58088;51.186;17.130;2023-08-08T07:53:09;22.41;40.86
70534;SHT31;58088;51.186;17.130;2023-08-08T07:55:36;22.49;40.77
70534;SHT31;58088;51.186;17.130;2023-08-08T07:58:02;22.53;41.07
70534;SHT31;58088;51.186;17.130;2023-08-08T08:00:28;22.82;40.27
70534;SHT31;58088;51.186;17.130;2023-08-08T08:02:54;22.89;39.93
70534;SHT31;58088;51.186;17.130;2023-08-08T08:05:21;23.14;39.26
70534;SHT31;58088;51.186;17.130;2023-08-08T08:07:47;23.36;38.58
70534;SHT31;58088;51.186;17.130;2023-08-08T08:10:13;23.54;37.78
70534;SHT31;58088;51.186;17.130;2023-08-08T08:12:40;23.36;37.24
70534;SHT31;58088;51.186;17.130;2023-08-08T08:15:07;23.29;38.15
70534;SHT31;58088;51.186;17.130;2023-08-08T08:17:35;23.09;38.03
70534;SHT31;58088;51.186;17.130;2023-08-08T08:20:02;22.72;37.60
70534;SHT31;58088;51.186;17.130;2023-08-08T08:22:31;22.47;38.25
70534;SHT31;58088;51.186;17.130;2023-08-08T08:24:58;22.68;38.73
70534;SHT31;58088;51.186;17.130;2023-08-08T08:27:24;22.93;38.96
70534;SHT31;58088;51.186;17.130;2023-08-08T08:29:50;23.03;39.23
70534;SHT31;58088;51.186;17.130;2023-08-08T08:32:17;22.89;38.88
70534;SHT31;58088;51.186;17.130;2023-08-08T08:34:43;22.64;39.13
70534;SHT31;58088;51.186;17.130;2023-08-08T08:37:10;22.38;39.93
70534;SHT31;58088;51.186;17.130;2023-08-08T08:39:36;22.19;40.59
70534;SHT31;58088;51.186;17.130;2023-08-08T08:42:02;22.17;41.56
70534;SHT31;58088;51.186;17.130;2023-08-08T08:44:32;22.16;41.53
70534;SHT31;58088;51.186;17.130;2023-08-08T08:47:02;22.08;41.66
70534;SHT31;58088;51.186;17.130;2023-08-08T08:49:30;22.16;42.55
70534;SHT31;58088;51.186;17.130;2023-08-08T08:51:57;22.31;42.74
70534;SHT31;58088;51.186;17.130;2023-08-08T08:54:26;22.49;42.18
70534;SHT31;58088;51.186;17.130;2023-08-08T08:56:56;22.63;41.72
70534;SHT31;58088;51.186;17.130;2023-08-08T08:59:23;22.77;41.36
70534;SHT31;58088;51.186;17.130;2023-08-08T09:01:50;22.93;41.21
70534;SHT31;58088;51.186;17.130;2023-08-08T09:04:18;23.03;40.44
70534;SHT31;58088;51.186;17.130;2023-08-08T09:06:47;23.03;39.53
70534;SHT31;58088;51.186;17.130;2023-08-08T09:09:15;23.12;39.94
70534;SHT31;58088;51.186;17.130;2023-08-08T09:11:44;23.13;39.39
70534;SHT31;58088;51.186;17.130;2023-08-08T09:14:17;23.09;39.21
70534;SHT31;58088;51.186;17.130;2023-08-08T09:16:46;23.23;40.37
70534;SHT31;58088;51.186;17.130;2023-08-08T09:19:14;23.27;40.64
70534;SHT31;58088;51.186;17.130;2023-08-08T09:21:43;23.26;39.78
70534;SHT31;58088;51.186;17.130;2023-08-08T09:24:10;23.21;39.52
70534;SHT31;58088;51.186;17.130;2023-08-08T09:26:36;23.14;39.75
70534;SHT31;58088;51.186;17.130;2023-08-08T09:29:04;23.11;39.83
70534;SHT31;58088;51.186;17.130;2023-08-08T09:31:31;23.08;39.54
70534;SHT31;58088;51.186;17.130;2023-08-08T09:34:00;23.08;39.23
70534;SHT31;58088;51.186;17.130;2023-08-08T09:36:29;23.15;39.09
70534;SHT31;58088;51.186;17.130;2023-08-08T09:38:56;23.27;39.47
70534;SHT31;58088;51.186;17.130;2023-08-08T09:41:23;23.28;39.68
70534;SHT31;58088;51.186;17.130;2023-08-08T09:43:51;23.28;39.97
70534;SHT31;58088;51.186;17.130;2023-08-08T09:46:20;23.33;39.94
70534;SHT31;58088;51.186;17.130;2023-08-08T09:48:47;23.33;39.94
70534;SHT31;58088;51.186;17.130;2023-08-08T09:51:14;23.16;39.87
70534;SHT31;58088;51.186;17.130;2023-08-08T09:53:41;23.04;39.54
70534;SHT31;58088;51.186;17.130;2023-08-08T09:56:09;23.07;40.18
70534;SHT31;58088;51.186;17.130;2023-08-08T09:58:37;23.03;39.59
70534;SHT31;58088;51.186;17.130;2023-08-08T10:01:03;22.90;39.12
70534;SHT31;58088;51.186;17.130;2023-08-08T10:03:32;22.82;39.90
70534;SHT31;58088;51.186;17.130;2023-08-08T10:06:00;22.98;40.26
70534;SHT31;58088;51.186;17.130;2023-08-08T10:08:28;23.15;40.54
70534;SHT31;58088;51.186;17.130;2023-08-08T10:10:56;23.29;40.01
70534;SHT31;58088;51.186;17.130;2023-08-08T10:13:23;23.40;40.21
70534;SHT31;58088;51.186;17.130;2023-08-08T10:15:52;23.40;40.21
70534;SHT31;58088;51.186;17.130;2023-08-08T10:18:23;23.33;40.04
70534;SHT31;58088;51.186;17.130;2023-08-08T10:20:50;23.47;40.22
70534;SHT31;58088;51.186;17.130;2023-08-08T10:23:19;23.47;38.86
70534;SHT31;58088;51.186;17.130;2023-08-08T10:25:46;23.38;39.27
70534;SHT31;58088;51.186;17.130;2023-08-08T10:28:18;23.30;39.45
70534;SHT31;58088;51.186;17.130;2023-08-08T10:30:47;23.25;38.82
70534;SHT31;58088;51.186;17.130;2023-08-08T10:33:21;23.26;39.54
70534;SHT31;58088;51.186;17.130;2023-08-08T10:38:39;23.49;38.20
70534;SHT31;58088;51.186;17.130;2023-08-08T10:41:13;23.50;39.02
70534;SHT31;58088;51.186;17.130;2023-08-08T10:43:53;23.49;38.57
70534;SHT31;58088;51.186;17.130;2023-08-08T10:46:41;23.48;38.56
70534;SHT31;58088;51.186;17.130;2023-08-08T10:49:07;23.63;38.81
70534;SHT31;58088;51.186;17.130;2023-08-08T10:51:41;23.74;38.69
70534;SHT31;58088;51.186;17.130;2023-08-08T10:54:14;23.77;38.89
70534;SHT31;58088;51.186;17.130;2023-08-08T10:56:57;23.55;37.85
70534;SHT31;58088;51.186;17.130;2023-08-08T10:59:26;23.17;38.59
70534;SHT31;58088;51.186;17.130;2023-08-08T11:02:01;22.93;39.34
70534;SHT31;58088;51.186;17.130;2023-08-08T11:04:28;22.79;39.41
70534;SHT31;58088;51.186;17.130;2023-08-08T11:06:58;22.76;40.14
70534;SHT31;58088;51.186;17.130;2023-08-08T11:09:25;22.73;39.98
70534;SHT31;58088;51.186;17.130;2023-08-08T11:11:52;22.74;39.80
70534;SHT31;58088;51.186;17.130;2023-08-08T11:14:19;22.81;40.87
70534;SHT31;58088;51.186;17.130;2023-08-08T11:16:49;22.89;40.59
70534;SHT31;58088;51.186;17.130;2023-08-08T11:19:17;22.78;39.74
70534;SHT31;58088;51.186;17.130;2023-08-08T11:21:45;22.71;40.50
70534;SHT31;58088;51.186;17.130;2023-08-08T11:24:15;22.85;41.30
70534;SHT31;58088;51.186;17.130;2023-08-08T11:26:42;23.08;41.51
70534;SHT31;58088;51.186;17.130;2023-08-08T11:29:12;23.14;40.84
70534;SHT31;58088;51.186;17.130;2023-08-08T11:31:39;23.05;40.41
70534;SHT31;58088;51.186;17.130;2023-08-08T11:34:07;22.98;40.33
70534;SHT31;58088;51.186;17.130;2023-08-08T11:36:35;23.01;40.48
70534;SHT31;58088;51.186;17.130;2023-08-08T11:39:03;23.08;39.93
70534;SHT31;58088;51.186;17.130;2023-08-08T11:41:36;23.16;40.38
70534;SHT31;58088;51.186;17.130;2023-08-08T11:44:04;23.22;40.35
70534;SHT31;58088;51.186;17.130;2023-08-08T11:46:33;23.22;40.35
70534;SHT31;58088;51.186;17.130;2023-08-08T11:49:04;23.32;40.53
70534;SHT31;58088;51.186;17.130;2023-08-08T11:51:32;23.45;40.54
70534;SHT31;58088;51.186;17.130;2023-08-08T11:54:01;23.46;39.99
70534;SHT31;58088;51.186;17.130;2023-08-08T11:56:33;23.42;40.26
70534;SHT31;58088;51.186;17.130;2023-08-08T11:59:00;23.39;39.72
70534;SHT31;58088;51.186;17.130;2023-08-08T12:01:28;23.39;39.90
70534;SHT31;58088;51.186;17.130;2023-08-08T12:04:04;23.47;40.52
70534;SHT31;58088;51.186;17.130;2023-08-08T12:06:34;23.68;40.50
70534;SHT31;58088;51.186;17.130;2023-08-08T12:09:06;23.74;39.82
70534;SHT31;58088;51.186;17.130;2023-08-08T12:11:35;23.77;40.26
70534;SHT31;58088;51.186;17.130;2023-08-08T12:14:07;23.95;40.75
70534;SHT31;58088;51.186;17.130;2023-08-08T12:16:39;24.19;40.85
70534;SHT31;58088;51.186;17.130;2023-08-08T12:19:08;24.33;40.13
70534;SHT31;58088;51.186;17.130;2023-08-08T12:21:36;24.37;40.23
70534;SHT31;58088;51.186;17.130;2023-08-08T12:24:02;24.36;40.34
70534;SHT31;58088;51.186;17.130;2023-08-08T12:26:29;24.24;39.83
70534;SHT31;58088;51.186;17.130;2023-08-08T12:28:55;24.08;39.67
70534;SHT31;58088;51.186;17.130;2023-08-08T12:31:22;23.95;40.20
70534;SHT31;58088;51.186;17.130;2023-08-08T12:33:49;23.87;40.75
70534;SHT31;58088;51.186;17.130;2023-08-08T12:36:15;23.90;41.21
70534;SHT31;58088;51.186;17.130;2023-08-08T12:38:41;23.96;40.52
70534;SHT31;58088;51.186;17.130;2023-08-08T12:41:08;23.90;40.01
70534;SHT31;58088;51.186;17.130;2023-08-08T12:43:36;23.81;40.16
70534;SHT31;58088;51.186;17.130;2023-08-08T12:46:02;23.75;40.85
70534;SHT31;58088;51.186;17.130;2023-08-08T12:48:28;23.69;40.30
70534;SHT31;58088;51.186;17.130;2023-08-08T12:50:55;23.66;40.99
70534;SHT31;58088;51.186;17.130;2023-08-08T12:53:21;23.67;40.52
70534;SHT31;58088;51.186;17.130;2023-08-08T12:55:47;23.69;40.73
70534;SHT31;58088;51.186;17.130;2023-08-08T12:58:14;23.69;40.33
70534;SHT31;58088;51.186;17.130;2023-08-08T13:00:40;23.62;39.97
70534;SHT31;58088;51.186;17.130;2023-08-08T13:03:06;23.52;39.60
70534;SHT31;58088;51.186;17.130;2023-08-08T13:05:33;23.44;39.77
70534;SHT31;58088;51.186;17.130;2023-08-08T13:07:59;23.35;39.82
70534;SHT31;58088;51.186;17.130;2023-08-08T13:10:25;23.27;40.27
70534;SHT31;58088;51.186;17.130;2023-08-08T13:12:51;23.24;40.55
70534;SHT31;58088;51.186;17.130;2023-08-08T13:15:18;23.18;40.79
70534;SHT31;58088;51.186;17.130;2023-08-08T13:17:44;23.09;41.44
70534;SHT31;58088;51.186;17.130;2023-08-08T13:20:11;23.10;41.73
70534;SHT31;58088;51.186;17.130;2023-08-08T13:22:38;23.13;41.73
70534;SHT31;58088;51.186;17.130;2023-08-08T13:25:05;23.10;41.90
70534;SHT31;58088;51.186;17.130;2023-08-08T13:27:32;23.14;41.64
70534;SHT31;58088;51.186;17.130;2023-08-08T13:29:58;23.27;41.95
70534;SHT31;58088;51.186;17.130;2023-08-08T13:32:24;23.48;42.26
70534;SHT31;58088;51.186;17.130;2023-08-08T13:34:50;23.64;41.60
70534;SHT31;58088;51.186;17.130;2023-08-08T13:37:16;23.63;40.77
70534;SHT31;58088;51.186;17.130;2023-08-08T13:39:42;23.60;40.88
70534;SHT31;58088;51.186;17.130;2023-08-08T13:42:09;23.49;40.98
70534;SHT31;58088;51.186;17.130;2023-08-08T13:44:35;23.45;40.71
70534;SHT31;58088;51.186;17.130;2023-08-08T13:47:01;23.38;40.89
70534;SHT31;58088;51.186;17.130;2023-08-08T13:49:27;23.32;40.34
70534;SHT31;58088;51.186;17.130;2023-08-08T13:51:54;23.20;40.13
70534;SHT31;58088;51.186;17.130;2023-08-08T13:54:20;23.10;40.51
70534;SHT31;58088;51.186;17.130;2023-08-08T13:56:46;23.05;41.23
70534;SHT31;58088;51.186;17.130;2023-08-08T13:59:13;23.09;42.06
70534;SHT31;58088;51.186;17.130;2023-08-08T14:01:39;23.15;41.34
70534;SHT31;58088;51.186;17.130;2023-08-08T14:04:05;23.14;41.30
70534;SHT31;58088;51.186;17.130;2023-08-08T14:06:32;23.09;40.63
70534;SHT31;58088;51.186;17.130;2023-08-08T14:08:58;23.05;40.51
70534;SHT31;58088;51.186;17.130;2023-08-08T14:11:24;22.99;40.67
70534;SHT31;58088;51.186;17.130;2023-08-08T14:13:50;22.87;40.50
70534;SHT31;58088;51.186;17.130;2023-08-08T14:16:16;22.86;40.96
70534;SHT31;58088;51.186;17.130;2023-08-08T14:18:43;22.89;40.60
70534;SHT31;58088;51.186;17.130;2023-08-08T14:21:09;22.89;40.47
70534;SHT31;58088;51.186;17.130;2023-08-08T14:23:35;22.88;40.88
70534;SHT31;58088;51.186;17.130;2023-08-08T14:26:01;22.91;40.82
70534;SHT31;58088;51.186;17.130;2023-08-08T14:28:28;23.00;40.38
70534;SHT31;58088;51.186;17.130;2023-08-08T14:30:54;23.11;41.12
70534;SHT31;58088;51.186;17.130;2023-08-08T14:33:20;23.22;41.17
70534;SHT31;58088;51.186;17.130;2023-08-08T14:35:46;23.29;41.20
70534;SHT31;58088;51.186;17.130;2023-08-08T14:38:12;23.30;40.84
70534;SHT31;58088;51.186;17.130;2023-08-08T14:40:39;23.30;40.66
70534;SHT31;58088;51.186;17.130;2023-08-08T14:43:05;23.22;39.59
70534;SHT31;58088;51.186;17.130;2023-08-08T14:45:36;23.17;39.29
70534;SHT31;58088;51.186;17.130;2023-08-08T14:48:04;23.19;39.49
70534;SHT31;58088;51.186;17.130;2023-08-08T14:50:31;23.14;38.70
70534;SHT31;58088;51.186;17.130;2023-08-08T14:52:57;23.12;39.14
70534;SHT31;58088;51.186;17.130;2023-08-08T14:55:24;23.10;39.05
70534;SHT31;58088;51.186;17.130;2023-08-08T14:57:50;23.06;38.80
70534;SHT31;58088;51.186;17.130;2023-08-08T15:00:16;23.10;39.38
70534;SHT31;58088;51.186;17.130;2023-08-08T15:02:43;23.13;38.95
70534;SHT31;58088;51.186;17.130;2023-08-08T15:05:09;23.13;38.71
70534;SHT31;58088;51.186;17.130;2023-08-08T15:07:36;23.14;38.86
70534;SHT31;58088;51.186;17.130;2023-08-08T15:10:03;23.16;39.13
70534;SHT31;58088;51.186;17.130;2023-08-08T15:12:29;23.17;39.16
70534;SHT31;58088;51.186;17.130;2023-08-08T15:14:56;23.18;39.34
70534;SHT31;58088;51.186;17.130;2023-08-08T15:17:22;23.21;39.99
70534;SHT31;58088;51.186;17.130;2023-08-08T15:19:48;23.21;39.88